createdAt,value
2018-11-12T00:00:01.246Z,47.67
2018-11-12T00:02:34.717Z,47.74
2018-11-12T00:05:08.364Z,47.76
2018-11-12T00:07:41.992Z,47.78
2018-11-12T00:10:15.560Z,47.80
2018-11-12T00:12:49.531Z,47.82
2018-11-12T00:15:23.501Z,47.80
2018-11-12T00:17:57.053Z,47.84
2018-11-12T00:20:30.701Z,47.80
2018-11-12T00:23:04.311Z,47.82
2018-11-12T00:25:37.758Z,47.86
2018-11-12T00:28:11.348Z,47.79
2018-11-12T00:30:44.777Z,47.79
2018-11-12T00:33:17.400Z,47.71
2018-11-12T00:35:50.416Z,47.67
2018-11-12T00:38:24.535Z,47.64
2018-11-12T00:40:58.268Z,47.61
2018-11-12T00:43:31.765Z,47.61
2018-11-12T00:46:05.370Z,47.58
2018-11-12T00:48:38.750Z,47.58
2018-11-12T00:51:12.476Z,47.54
2018-11-12T00:53:46.050Z,47.54
2018-11-12T00:56:20.387Z,47.51
2018-11-12T00:58:54.051Z,47.50
2018-11-12T01:01:27.711Z,47.51
2018-11-12T01:04:01.857Z,47.50
2018-11-12T01:06:34.487Z,47.57
2018-11-12T01:09:09.369Z,47.50
2018-11-12T01:11:43.279Z,47.45
2018-11-12T01:14:17.280Z,47.50
2018-11-12T01:16:51.372Z,47.57
2018-11-12T01:19:24.780Z,47.59
2018-11-12T01:21:58.489Z,47.54
2018-11-12T01:24:32.043Z,47.54
2018-11-12T01:27:05.569Z,47.61
2018-11-12T01:29:39.373Z,47.62
2018-11-12T01:32:13.053Z,47.66
2018-11-12T01:34:46.575Z,47.61
2018-11-12T01:37:20.316Z,47.60
2018-11-12T01:39:53.978Z,47.63
2018-11-12T01:42:27.540Z,47.60
2018-11-12T01:45:00.689Z,47.56
2018-11-12T01:48:15.474Z,47.45
2018-11-12T01:50:48.548Z,47.55
2018-11-12T01:53:21.573Z,47.56
2018-11-12T01:55:54.580Z,47.65
2018-11-12T01:58:27.680Z,47.71
2018-11-12T02:01:01.281Z,47.72
2018-11-12T02:03:34.464Z,47.70
2018-11-12T02:06:07.645Z,47.69
2018-11-12T02:08:40.578Z,47.70
2018-11-12T02:11:13.553Z,47.68
2018-11-12T02:13:46.664Z,47.63
2018-11-12T02:16:19.712Z,47.59
2018-11-12T02:18:53.482Z,47.51
2018-11-12T02:21:26.458Z,47.53
2018-11-12T02:24:00.282Z,47.58
2018-11-12T02:26:33.397Z,47.58
2018-11-12T02:29:06.744Z,47.54
2018-11-12T02:31:40.481Z,47.39
2018-11-12T02:34:14.053Z,47.39
2018-11-12T02:36:47.557Z,47.50
2018-11-12T02:39:21.045Z,47.50
2018-11-12T02:41:55.026Z,47.55
2018-11-12T02:44:28.532Z,47.56
2018-11-12T02:47:02.282Z,47.57
2018-11-12T02:49:36.272Z,47.53
2018-11-12T02:52:10.274Z,47.58
2018-11-12T02:54:43.726Z,47.52
2018-11-12T02:57:17.379Z,47.54
2018-11-12T02:59:50.743Z,47.50
2018-11-12T03:02:24.410Z,47.63
2018-11-12T03:04:57.790Z,47.63
2018-11-12T03:07:31.279Z,47.38
2018-11-12T03:10:05.281Z,47.38
2018-11-12T03:12:38.752Z,47.55
2018-11-12T03:15:13.850Z,47.36
2018-11-12T03:17:47.996Z,47.62
2018-11-12T03:20:22.645Z,47.62
2018-11-12T03:22:56.276Z,47.50
2018-11-12T03:25:30.319Z,47.50
2018-11-12T03:28:03.729Z,47.52
2018-11-12T03:30:37.351Z,47.60
2018-11-12T03:33:11.353Z,47.60
2018-11-12T03:35:45.023Z,47.58
2018-11-12T03:38:19.531Z,47.57
2018-11-12T03:40:53.281Z,47.55
2018-11-12T03:43:26.726Z,47.54
2018-11-12T03:46:00.373Z,47.48
2018-11-12T03:48:34.282Z,47.48
2018-11-12T03:51:07.799Z,47.45
2018-11-12T03:53:41.495Z,47.42
2018-11-12T03:56:15.032Z,47.42
2018-11-12T03:58:48.527Z,47.44
2018-11-12T04:01:22.057Z,47.37
2018-11-12T04:03:55.569Z,47.35
2018-11-12T04:06:29.579Z,47.36
2018-11-12T04:09:03.301Z,47.42
2018-11-12T04:11:37.052Z,47.32
2018-11-12T04:14:11.732Z,47.29
2018-11-12T04:16:46.133Z,47.35
2018-11-12T04:19:20.276Z,47.35
2018-11-12T04:21:53.760Z,47.31
2018-11-12T04:24:26.530Z,47.33
2018-11-12T04:26:59.341Z,47.30
2018-11-12T04:29:32.764Z,47.29
2018-11-12T04:32:06.730Z,47.28
2018-11-12T04:34:40.317Z,47.28
2018-11-12T04:37:13.777Z,47.33
2018-11-12T04:39:47.341Z,47.35
2018-11-12T04:42:21.277Z,47.35
2018-11-12T04:44:54.752Z,47.34
2018-11-12T04:47:28.354Z,47.12
2018-11-12T04:50:02.373Z,47.12
2018-11-12T04:52:36.287Z,47.35
2018-11-12T04:55:12.661Z,47.31
2018-11-12T04:57:46.716Z,47.29
2018-11-12T05:00:28.570Z,47.29
2018-11-12T05:03:02.341Z,47.32
2018-11-12T05:05:35.801Z,47.30
2018-11-12T05:08:09.533Z,47.22
2018-11-12T05:10:43.514Z,47.22
2018-11-12T05:13:17.058Z,47.31
2018-11-12T05:15:50.723Z,47.43
2018-11-12T05:18:24.285Z,47.54
2018-11-12T05:20:57.741Z,47.67
2018-11-12T05:23:31.338Z,47.83
2018-11-12T05:26:05.377Z,47.91
2018-11-12T05:28:38.786Z,47.79
2018-11-12T05:31:12.506Z,47.95
2018-11-12T05:33:46.038Z,47.95
2018-11-12T05:36:19.586Z,47.83
2018-11-12T05:38:53.415Z,47.73
2018-11-12T05:41:26.876Z,47.58
2018-11-12T05:43:59.251Z,47.52
2018-11-12T05:46:33.285Z,47.51
2018-11-12T05:49:07.266Z,47.35
2018-11-12T05:51:40.801Z,47.34
2018-11-12T05:54:14.461Z,47.27
2018-11-12T05:56:48.638Z,47.27
2018-11-12T05:59:21.689Z,47.22
2018-11-12T06:01:54.876Z,47.19
2018-11-12T06:04:27.089Z,47.11
2018-11-12T06:07:01.285Z,47.12
2018-11-12T06:09:35.285Z,47.09
2018-11-12T06:12:09.285Z,47.09
2018-11-12T06:14:42.581Z,47.09
2018-11-12T06:17:15.566Z,47.10
2018-11-12T06:19:48.551Z,47.08
2018-11-12T06:22:21.730Z,47.04
2018-11-12T06:24:55.554Z,46.98
2018-11-12T06:27:30.534Z,46.98
2018-11-12T06:30:04.057Z,46.99
2018-11-12T06:32:38.281Z,47.01
2018-11-12T06:35:13.545Z,46.92
2018-11-12T06:37:48.491Z,46.93
2018-11-12T06:40:23.281Z,46.98
2018-11-12T06:42:57.746Z,47.00
2018-11-12T06:45:33.058Z,46.98
2018-11-12T06:48:06.988Z,46.90
2018-11-12T06:50:40.569Z,46.87
2018-11-12T06:53:14.072Z,46.91
2018-11-12T06:55:47.587Z,46.91
2018-11-12T06:58:21.280Z,46.99
2018-11-12T07:00:54.731Z,47.17
2018-11-12T07:03:28.321Z,47.11
2018-11-12T07:06:01.777Z,47.14
2018-11-12T07:08:35.346Z,47.02
2018-11-12T07:11:09.271Z,47.02
2018-11-12T07:13:43.300Z,47.16
2018-11-12T07:16:16.983Z,47.17
2018-11-12T07:18:50.536Z,47.11
2018-11-12T07:21:24.541Z,47.10
2018-11-12T07:23:58.325Z,47.11
2018-11-12T07:26:31.781Z,46.99
2018-11-12T07:29:05.054Z,46.84
2018-11-12T07:31:39.277Z,46.79
2018-11-12T07:34:12.753Z,46.88
2018-11-12T07:36:46.368Z,46.72
2018-11-12T07:39:19.904Z,46.72
2018-11-12T07:41:52.271Z,46.78
2018-11-12T07:44:25.864Z,46.77
2018-11-12T07:46:59.534Z,46.70
2018-11-12T07:49:33.515Z,46.66
2018-11-12T07:52:07.292Z,46.68
2018-11-12T07:54:41.290Z,46.68
2018-11-12T07:57:14.719Z,46.68
2018-11-12T07:59:48.373Z,46.61
2018-11-12T08:02:22.056Z,46.69
2018-11-12T08:04:55.614Z,46.69
2018-11-12T08:07:29.291Z,46.76
2018-11-12T08:10:02.750Z,46.67
2018-11-12T08:12:36.373Z,46.64
2018-11-12T08:15:12.697Z,46.64
2018-11-12T08:17:48.591Z,46.50
2018-11-12T08:20:23.721Z,46.70
2018-11-12T08:22:57.391Z,46.64
2018-11-12T08:25:30.786Z,46.57
2018-11-12T08:29:34.802Z,46.71
2018-11-12T08:32:08.571Z,46.80
2018-11-12T08:34:42.485Z,46.80
2018-11-12T08:37:15.876Z,46.74
2018-11-12T08:39:49.598Z,46.67
2018-11-12T08:42:23.067Z,46.67
2018-11-12T08:44:56.601Z,46.72
2018-11-12T08:47:30.043Z,46.68
2018-11-12T08:50:03.668Z,46.57
2018-11-12T08:52:37.064Z,46.65
2018-11-12T08:55:13.871Z,46.63
2018-11-12T08:57:55.091Z,47.04
2018-11-12T09:00:28.721Z,47.04
2018-11-12T09:03:01.751Z,46.77
2018-11-12T09:05:35.306Z,46.72
2018-11-12T09:08:09.293Z,46.70
2018-11-12T09:10:42.750Z,46.98
2018-11-12T09:13:15.802Z,47.06
2018-11-12T09:15:48.428Z,47.71
2018-11-12T09:18:21.249Z,48.11
2018-11-12T09:20:54.747Z,48.11
2018-11-12T09:23:28.359Z,47.88
2018-11-12T09:26:01.522Z,47.70
2018-11-12T09:28:34.630Z,47.64
2018-11-12T09:31:08.982Z,47.78
2018-11-12T09:33:41.705Z,47.72
2018-11-12T09:36:14.722Z,47.78
2018-11-12T09:38:48.115Z,47.75
2018-11-12T09:41:21.504Z,47.76
2018-11-12T09:43:54.486Z,47.79
2018-11-12T09:46:28.270Z,47.78
2018-11-12T09:49:01.483Z,47.59
2018-11-12T09:51:34.516Z,47.65
2018-11-12T09:56:56.701Z,47.62
2018-11-12T09:59:30.737Z,47.70
2018-11-12T10:02:03.735Z,47.77
2018-11-12T10:04:38.616Z,47.81
2018-11-12T10:07:12.862Z,47.77
2018-11-12T10:09:46.708Z,47.77
2018-11-12T10:12:19.481Z,47.67
2018-11-12T10:14:52.897Z,47.75
2018-11-12T10:17:27.194Z,47.70
2018-11-12T10:19:58.287Z,47.70
2018-11-12T10:22:32.018Z,47.81
2018-11-12T10:25:05.583Z,47.84
2018-11-12T10:27:39.588Z,47.83
2018-11-12T10:30:13.588Z,47.81
2018-11-12T10:32:47.324Z,47.77
2018-11-12T10:35:21.272Z,47.88
2018-11-12T10:37:55.306Z,47.78
2018-11-12T10:40:29.370Z,47.76
2018-11-12T10:43:02.776Z,47.68
2018-11-12T10:45:37.577Z,47.62
2018-11-12T10:48:11.558Z,47.62
2018-11-12T10:50:45.282Z,47.56
2018-11-12T10:54:15.622Z,47.52
2018-11-12T10:56:48.569Z,47.68
2018-11-12T10:59:21.667Z,47.56
2018-11-12T11:01:56.289Z,47.58
2018-11-12T11:04:32.530Z,47.53
2018-11-12T11:07:05.696Z,47.51
2018-11-12T11:09:39.285Z,47.50
2018-11-12T11:12:12.477Z,47.47
2018-11-12T11:14:45.629Z,47.53
2018-11-12T11:17:18.741Z,47.57
2018-11-12T11:19:51.787Z,47.61
2018-11-12T11:22:25.285Z,47.60
2018-11-12T11:24:58.477Z,47.60
2018-11-12T11:27:31.559Z,47.63
2018-11-12T11:30:05.674Z,47.65
2018-11-12T11:32:38.692Z,47.65
2018-11-12T11:35:14.050Z,47.59
2018-11-12T11:37:47.482Z,47.59
2018-11-12T11:40:24.640Z,47.61
2018-11-12T11:42:58.201Z,47.61
2018-11-12T11:45:31.545Z,47.58
2018-11-12T11:48:05.401Z,47.56
2018-11-12T11:50:38.507Z,47.52
2018-11-12T11:53:11.546Z,47.56
2018-11-12T11:55:44.668Z,47.66
2018-11-12T11:58:17.696Z,47.63
2018-11-12T12:00:50.635Z,47.62
2018-11-12T12:03:23.600Z,47.61
2018-11-12T12:05:56.750Z,47.56
2018-11-12T12:08:30.294Z,47.50
2018-11-12T12:11:03.761Z,47.50
2018-11-12T12:13:37.338Z,47.53
2018-11-12T12:16:11.073Z,47.53
2018-11-12T12:18:45.038Z,47.57
2018-11-12T12:21:18.633Z,47.56
2018-11-12T12:23:52.320Z,47.57
2018-11-12T12:26:26.289Z,47.66
2018-11-12T12:29:00.297Z,47.65
2018-11-12T12:31:33.900Z,47.67
2018-11-12T12:34:06.296Z,47.68
2018-11-12T12:36:40.036Z,47.66
2018-11-12T12:39:14.743Z,47.70
2018-11-12T12:41:48.511Z,47.63
2018-11-12T12:44:22.051Z,47.62
2018-11-12T12:46:55.623Z,47.75
2018-11-12T12:49:29.619Z,47.71
2018-11-12T12:52:03.905Z,47.72
2018-11-12T12:54:36.301Z,47.67
2018-11-12T12:57:10.061Z,47.55
2018-11-12T12:59:43.574Z,47.65
2018-11-12T13:02:17.380Z,47.71
2018-11-12T13:04:53.685Z,47.66
2018-11-12T13:07:24.426Z,47.65
2018-11-12T13:09:58.292Z,47.65
2018-11-12T13:12:31.825Z,47.67
2018-11-12T13:15:06.121Z,47.75
2018-11-12T13:17:39.612Z,47.75
2018-11-12T13:20:18.564Z,47.77
2018-11-12T13:22:52.296Z,47.86
2018-11-12T13:25:25.750Z,47.77
2018-11-12T13:27:59.377Z,47.78
2018-11-12T13:30:32.762Z,47.73
2018-11-12T13:33:06.378Z,47.68
2018-11-12T13:35:39.777Z,47.68
2018-11-12T13:38:13.476Z,47.79
2018-11-12T13:40:47.381Z,47.79
2018-11-12T13:43:20.774Z,47.71
2018-11-12T13:45:53.381Z,47.74
2018-11-12T13:48:26.249Z,47.66
2018-11-12T13:50:59.748Z,47.66
2018-11-12T13:53:33.533Z,47.66
2018-11-12T13:56:07.773Z,47.66
2018-11-12T13:58:41.470Z,47.90
2018-11-12T14:01:14.875Z,47.90
2018-11-12T14:03:47.247Z,47.86
2018-11-12T14:06:20.705Z,47.87
2018-11-12T14:08:54.504Z,47.88
2018-11-12T14:11:28.511Z,47.86
2018-11-12T14:14:02.683Z,47.85
2018-11-12T14:16:36.086Z,47.81
2018-11-12T14:19:09.777Z,47.83
2018-11-12T14:21:43.584Z,47.72
2018-11-12T14:24:17.361Z,47.72
2018-11-12T14:26:51.022Z,47.81
2018-11-12T14:29:24.584Z,47.80
2018-11-12T14:31:58.431Z,47.83
2018-11-12T14:34:32.278Z,47.70
2018-11-12T14:37:05.773Z,47.72
2018-11-12T14:39:40.348Z,47.68
2018-11-12T14:42:13.745Z,47.68
2018-11-12T14:44:47.370Z,47.63
2018-11-12T14:47:21.053Z,47.63
2018-11-12T14:49:54.703Z,47.66
2018-11-12T14:52:28.333Z,47.65
2018-11-12T14:55:01.834Z,47.60
2018-11-12T14:57:35.483Z,47.64
2018-11-12T15:00:30.487Z,47.64
2018-11-12T15:03:04.052Z,47.66
2018-11-12T15:05:38.053Z,47.67
2018-11-12T15:08:12.054Z,47.50
2018-11-12T15:10:45.950Z,47.35
2018-11-12T15:13:18.289Z,47.28
2018-11-12T15:15:51.779Z,47.23
2018-11-12T15:18:24.415Z,47.25
2018-11-12T15:20:57.817Z,47.30
2018-11-12T15:23:30.963Z,47.31
2018-11-12T15:26:03.546Z,47.19
2018-11-12T15:28:37.056Z,47.16
2018-11-12T15:31:10.813Z,47.07
2018-11-12T15:33:44.372Z,47.27
2018-11-12T15:36:18.053Z,47.27
2018-11-12T15:38:51.545Z,47.16
2018-11-12T15:41:25.362Z,47.20
2018-11-12T15:43:59.316Z,47.16
2018-11-12T15:46:33.264Z,47.25
2018-11-12T15:49:07.727Z,47.20
2018-11-12T15:51:41.298Z,47.27
2018-11-12T15:54:14.758Z,47.31
2018-11-12T15:56:48.494Z,47.33
2018-11-12T15:59:22.007Z,47.33
2018-11-12T16:01:55.564Z,47.24
2018-11-12T16:04:29.019Z,47.23
2018-11-12T16:07:02.694Z,47.26
2018-11-12T16:09:36.222Z,47.33
2018-11-12T16:12:09.656Z,47.33
2018-11-12T16:14:43.310Z,47.33
2018-11-12T16:17:17.061Z,47.43
2018-11-12T16:19:50.603Z,47.41
2018-11-12T16:22:24.632Z,47.29
2018-11-12T16:24:58.371Z,47.16
2018-11-12T16:27:32.276Z,47.27
2018-11-12T16:30:05.856Z,47.34
2018-11-12T16:32:39.582Z,47.30
2018-11-12T16:35:16.241Z,47.19
2018-11-12T16:37:50.299Z,47.31
2018-11-12T16:40:23.640Z,47.30
2018-11-12T16:42:56.612Z,47.32
2018-11-12T16:45:29.502Z,47.31
2018-11-12T16:48:02.681Z,47.25
2018-11-12T16:50:35.654Z,47.21
2018-11-12T16:53:09.102Z,47.20
2018-11-12T16:55:42.206Z,47.17
2018-11-12T16:58:15.449Z,47.05
2018-11-12T17:00:49.362Z,47.01
2018-11-12T17:03:22.532Z,46.91
2018-11-12T17:05:55.647Z,46.96
2018-11-12T17:08:28.707Z,46.84
2018-11-12T17:11:02.339Z,46.84
2018-11-12T17:13:35.472Z,46.70
2018-11-12T17:16:09.272Z,46.72
2018-11-12T17:18:42.511Z,46.60
2018-11-12T17:21:15.542Z,46.73
2018-11-12T17:23:48.653Z,46.71
2018-11-12T17:26:22.775Z,46.81
2018-11-12T17:28:55.420Z,46.73
2018-11-12T17:31:28.298Z,46.76
2018-11-12T17:34:01.755Z,46.83
2018-11-12T17:36:35.567Z,46.90
2018-11-12T17:39:11.040Z,46.90
2018-11-12T17:41:45.052Z,46.96
2018-11-12T17:44:18.774Z,46.87
2018-11-12T17:46:52.679Z,47.09
2018-11-12T17:49:26.373Z,47.09
2018-11-12T17:51:59.808Z,47.09
2018-11-12T17:54:33.911Z,47.25
2018-11-12T17:57:07.523Z,47.26
2018-11-12T17:59:41.359Z,47.26
2018-11-12T18:02:15.603Z,47.33
2018-11-12T18:04:49.594Z,47.37
2018-11-12T18:07:23.689Z,47.41
2018-11-12T18:09:57.368Z,47.40
2018-11-12T18:12:31.380Z,47.44
2018-11-12T18:15:04.764Z,47.48
2018-11-12T18:17:39.051Z,47.45
2018-11-12T18:20:17.276Z,47.45
2018-11-12T18:22:52.298Z,47.47
2018-11-12T18:25:25.795Z,47.48
2018-11-12T18:27:59.620Z,47.43
2018-11-12T18:30:34.434Z,47.43
2018-11-12T18:33:08.280Z,47.41
2018-11-12T18:35:42.278Z,47.41
2018-11-12T18:38:17.035Z,47.38
2018-11-12T18:40:50.668Z,47.40
2018-11-12T18:43:24.619Z,47.39
2018-11-12T18:45:58.292Z,47.36
2018-11-12T18:48:31.807Z,47.35
2018-11-12T18:51:05.497Z,47.28
2018-11-12T18:53:39.269Z,47.28
2018-11-12T18:56:12.777Z,47.43
2018-11-12T18:58:47.278Z,47.60
2018-11-12T19:01:21.270Z,47.60
2018-11-12T19:04:02.507Z,47.59
2018-11-12T19:06:36.275Z,47.59
2018-11-12T19:09:12.680Z,47.65
2018-11-12T19:11:46.347Z,47.61
2018-11-12T19:14:20.534Z,47.55
2018-11-12T19:16:54.586Z,47.44
2018-11-12T19:19:28.372Z,47.39
2018-11-12T19:22:02.026Z,47.39
2018-11-12T19:24:35.649Z,47.41
2018-11-12T19:27:09.412Z,47.45
2018-11-12T19:29:43.047Z,47.30
2018-11-12T19:32:16.845Z,47.34
2018-11-12T19:34:50.510Z,47.40
2018-11-12T19:37:24.779Z,47.40
2018-11-12T19:39:58.776Z,47.28
2018-11-12T19:42:31.642Z,47.28
2018-11-12T19:45:04.426Z,47.23
2018-11-12T19:47:38.139Z,47.25
2018-11-12T19:50:17.274Z,47.18
2018-11-12T19:52:52.869Z,47.17
2018-11-12T19:55:25.307Z,47.23
2018-11-12T19:57:58.875Z,47.25
2018-11-12T20:00:31.732Z,47.22
2018-11-12T20:03:05.383Z,47.13
2018-11-12T20:05:39.007Z,47.18
2018-11-12T20:08:12.627Z,47.25
2018-11-12T20:10:46.343Z,47.29
2018-11-12T20:13:20.280Z,47.19
2018-11-12T20:15:53.770Z,47.17
2018-11-12T20:18:27.542Z,47.28
2018-11-12T20:21:01.305Z,47.28
2018-11-12T20:23:34.804Z,47.28
2018-11-12T20:26:08.609Z,47.26
2018-11-12T20:28:42.286Z,47.26
2018-11-12T20:31:16.381Z,47.25
2018-11-12T20:33:50.067Z,47.18
2018-11-12T20:36:23.711Z,47.08
2018-11-12T20:38:57.353Z,47.10
2018-11-12T20:41:31.326Z,47.09
2018-11-12T20:44:05.009Z,47.03
2018-11-12T20:48:06.724Z,47.04
2018-11-12T20:50:40.384Z,47.04
2018-11-12T20:53:14.422Z,46.98
2018-11-12T20:55:48.408Z,46.89
2018-11-12T20:58:21.791Z,46.88
2018-11-12T21:00:55.570Z,46.99
2018-11-12T21:03:29.332Z,46.99
2018-11-12T21:06:03.274Z,46.91
2018-11-12T21:08:36.780Z,46.83
2018-11-12T21:11:10.631Z,46.81
2018-11-12T21:13:44.579Z,46.81
2018-11-12T21:16:18.340Z,46.75
2018-11-12T21:18:52.550Z,46.79
2018-11-12T21:21:26.575Z,46.78
2018-11-12T21:24:00.540Z,46.76
2018-11-12T21:26:34.154Z,46.70
2018-11-12T21:29:07.863Z,46.77
2018-11-12T21:31:41.784Z,46.58
2018-11-12T21:34:15.590Z,46.76
2018-11-12T21:36:49.318Z,46.76
2018-11-12T21:39:22.824Z,46.75
2018-11-12T21:41:56.572Z,46.78
2018-11-12T21:44:30.287Z,46.78
2018-11-12T21:47:03.763Z,46.68
2018-11-12T21:49:37.619Z,46.70
2018-11-12T21:52:11.786Z,46.70
2018-11-12T21:54:45.584Z,46.60
2018-11-12T21:57:19.535Z,46.60
2018-11-12T21:59:53.412Z,46.73
2018-11-12T22:02:27.589Z,46.85
2018-11-12T22:05:02.291Z,46.80
2018-11-12T22:07:35.784Z,46.75
2018-11-12T22:10:12.670Z,46.79
2018-11-12T22:12:47.581Z,46.79
2018-11-12T22:15:21.285Z,46.82
2018-11-12T22:17:54.769Z,46.80
2018-11-12T22:20:29.519Z,46.83
2018-11-12T22:23:03.559Z,46.83
2018-11-12T22:25:37.597Z,46.80
2018-11-12T22:28:10.603Z,46.77
2018-11-12T22:30:43.634Z,46.78
2018-11-12T22:33:16.643Z,46.81
2018-11-12T22:35:49.780Z,46.84
2018-11-12T22:38:23.280Z,46.65
2018-11-12T22:40:57.987Z,46.65
2018-11-12T22:43:31.315Z,46.73
2018-11-12T22:46:04.477Z,46.74
2018-11-12T22:48:37.509Z,46.79
2018-11-12T22:51:11.525Z,46.78
2018-11-12T22:53:44.581Z,46.79
2018-11-12T22:56:22.074Z,46.79
2018-11-12T22:58:55.558Z,46.75
2018-11-12T23:01:28.628Z,46.82
2018-11-12T23:04:01.638Z,46.78
2018-11-12T23:06:34.579Z,46.80
2018-11-12T23:09:15.883Z,46.81
2018-11-12T23:11:48.469Z,46.79
2018-11-12T23:14:21.643Z,46.80
2018-11-12T23:16:54.590Z,46.83
2018-11-12T23:19:27.584Z,46.80
2018-11-12T23:22:00.714Z,46.88
2018-11-12T23:24:33.726Z,46.89
2018-11-12T23:27:07.130Z,46.95
2018-11-12T23:29:40.574Z,46.91
2018-11-12T23:32:14.282Z,46.93
2018-11-12T23:34:50.125Z,46.90
2018-11-12T23:37:24.051Z,46.96
2018-11-12T23:39:57.575Z,46.93
2018-11-12T23:42:31.280Z,46.94
2018-11-12T23:45:04.757Z,46.95
2018-11-12T23:47:39.025Z,46.86
2018-11-12T23:50:24.059Z,46.86
2018-11-12T23:52:59.056Z,46.85
2018-11-12T23:55:33.057Z,46.81
2018-11-12T23:58:06.671Z,46.84
